Time;durP1;ratioP1;P1;durP2;ratioP2;P2;SDS_P1;SDS_P2;PMS_P1;PMS_P2;Temp;Humidity;BMP_temperature;BMP_pressure;BME280_temperature;BME280_humidity;BME280_pressure;Samples;Min_cycle;Max_cycle;Signal;HPM_P1;HPM_P2
2023/05/16 00:01:47;;;;;;;14.68;9.10;;;;;;;;;;4963193;28;20042;-82
2023/05/16 00:04:15;;;;;;;12.52;9.15;;;;;;;;;;4979327;28;20128;-83
2023/05/16 00:06:41;;;;;;;14.55;9.35;;;;;;;;;;4971762;28;20042;-83
2023/05/16 00:09:08;;;;;;;17.55;10.55;;;;;;;;;;4935159;28;20044;-82
2023/05/16 00:11:35;;;;;;;15.27;9.75;;;;;;;;;;4934013;28;20455;-82
2023/05/16 00:14:01;;;;;;;18.55;9.88;;;;;;;;;;4950484;28;20064;-82
2023/05/16 00:16:29;;;;;;;17.13;10.05;;;;;;;;;;4966369;28;20063;-83
2023/05/16 00:18:59;;;;;;;15.55;10.40;;;;;;;;;;4936061;28;20119;-81
2023/05/16 00:21:26;;;;;;;15.43;9.88;;;;;;;;;;4950896;28;20047;-83
2023/05/16 00:23:53;;;;;;;17.17;9.98;;;;;;;;;;4936389;28;20048;-81
2023/05/16 00:26:20;;;;;;;15.07;10.40;;;;;;;;;;4949882;28;20056;-80
2023/05/16 00:28:47;;;;;;;15.45;10.68;;;;;;;;;;4935628;28;20039;-83
2023/05/16 00:31:13;;;;;;;15.70;10.48;;;;;;;;;;4919393;28;20094;-81
2023/05/16 00:33:40;;;;;;;17.05;10.73;;;;;;;;;;4966047;28;20111;-81
2023/05/16 00:36:06;;;;;;;16.23;10.43;;;;;;;;;;4931753;28;20122;-81
2023/05/16 00:38:33;;;;;;;16.38;11.73;;;;;;;;;;4964311;28;20477;-80
2023/05/16 00:40:59;;;;;;;16.38;11.30;;;;;;;;;;4931689;28;20512;-79
2023/05/16 00:43:26;;;;;;;18.80;10.85;;;;;;;;;;4936139;29;20673;-81
2023/05/16 00:45:53;;;;;;;16.48;10.77;;;;;;;;;;4951752;28;20039;-83
2023/05/16 00:48:20;;;;;;;17.17;10.40;;;;;;;;;;4950810;28;20052;-83
2023/05/16 00:50:48;;;;;;;18.52;10.85;;;;;;;;;;4934877;28;20135;-84
2023/05/16 00:53:15;;;;;;;15.60;10.80;;;;;;;;;;4958220;28;20059;-80
2023/05/16 00:55:42;;;;;;;17.58;11.50;;;;;;;;;;4975720;28;20051;-81
2023/05/16 00:58:10;;;;;;;19.90;11.57;;;;;;;;;;4938155;28;20051;-82
2023/05/16 01:00:37;;;;;;;18.10;11.18;;;;;;;;;;4953618;28;20110;-82
2023/05/16 01:03:06;;;;;;;20.52;11.50;;;;;;;;;;4970017;28;20061;-82
2023/05/16 01:05:33;;;;;;;20.88;11.50;;;;;;;;;;4969760;28;20153;-82
2023/05/16 01:08:00;;;;;;;20.00;11.73;;;;;;;;;;4955025;28;20134;-81
2023/05/16 01:10:31;;;;;;;19.58;11.60;;;;;;;;;;4953643;29;20057;-82
2023/05/16 01:12:59;;;;;;;16.02;11.50;;;;;;;;;;4954343;28;20054;-81
2023/05/16 01:15:37;;;;;;;18.33;11.43;;;;;;;;;;4950927;28;20134;-80
2023/05/16 01:18:33;;;;;;;18.05;12.10;;;;;;;;;;4937691;28;20051;-82
2023/05/16 01:21:03;;;;;;;16.75;11.60;;;;;;;;;;4936767;29;20049;-80
2023/05/16 01:23:36;;;;;;;17.98;11.45;;;;;;;;;;4969415;28;20500;-82
2023/05/16 01:26:22;;;;;;;16.52;11.50;;;;;;;;;;4953887;28;20424;-80
2023/05/16 01:28:50;;;;;;;17.02;12.32;;;;;;;;;;4953069;28;20047;-81
2023/05/16 01:31:17;;;;;;;18.38;12.00;;;;;;;;;;4969080;28;20055;-81
2023/05/16 01:33:44;;;;;;;21.20;12.15;;;;;;;;;;4968657;28;20046;-80
2023/05/16 01:36:31;;;;;;;17.38;11.60;;;;;;;;;;4968986;28;20472;-80
2023/05/16 01:39:09;;;;;;;17.50;11.65;;;;;;;;;;4969459;28;20077;-80
2023/05/16 01:42:00;;;;;;;17.27;11.50;;;;;;;;;;4968102;28;20069;-80
2023/05/16 01:44:30;;;;;;;20.52;12.18;;;;;;;;;;4983423;28;20048;-80
2023/05/16 01:47:00;;;;;;;22.33;13.55;;;;;;;;;;4954394;28;20055;-82
2023/05/16 01:49:33;;;;;;;17.80;12.25;;;;;;;;;;4968229;28;20070;-81
2023/05/16 01:52:03;;;;;;;17.17;12.05;;;;;;;;;;4984421;28;20063;-81
2023/05/16 01:54:31;;;;;;;27.52;12.85;;;;;;;;;;4968897;28;20431;-81
2023/05/16 01:56:58;;;;;;;26.15;12.18;;;;;;;;;;4953827;28;20047;-81
2023/05/16 01:59:26;;;;;;;18.00;11.82;;;;;;;;;;4997013;28;20115;-81
2023/05/16 02:01:53;;;;;;;23.73;12.90;;;;;;;;;;5000343;28;20112;-80
2023/05/16 02:04:20;;;;;;;24.85;13.00;;;;;;;;;;4983739;28;20079;-82
2023/05/16 02:06:47;;;;;;;23.13;13.55;;;;;;;;;;4962680;28;20543;-81
2023/05/16 02:09:15;;;;;;;22.60;13.27;;;;;;;;;;4950262;28;20062;-81
2023/05/16 02:11:42;;;;;;;19.00;12.43;;;;;;;;;;4950467;28;20047;-80
2023/05/16 02:14:09;;;;;;;22.15;13.23;;;;;;;;;;4951467;28;20081;-80
2023/05/16 02:16:36;;;;;;;20.42;12.80;;;;;;;;;;4984110;28;20055;-82
2023/05/16 02:19:02;;;;;;;19.60;12.35;;;;;;;;;;4985794;28;20050;-82
2023/05/16 02:21:30;;;;;;;18.90;12.55;;;;;;;;;;4955993;28;20110;-83
2023/05/16 02:23:56;;;;;;;19.95;12.20;;;;;;;;;;4955075;28;20467;-82
2023/05/16 02:26:25;;;;;;;18.02;11.95;;;;;;;;;;4952306;28;20047;-83
2023/05/16 02:28:53;;;;;;;18.92;12.05;;;;;;;;;;4968953;28;20043;-82
2023/05/16 02:31:26;;;;;;;22.75;11.15;;;;;;;;;;4968928;28;20126;-82
2023/05/16 02:33:53;;;;;;;15.57;11.15;;;;;;;;;;4969848;28;20070;-82
2023/05/16 02:36:20;;;;;;;20.65;11.68;;;;;;;;;;4957936;28;20057;-84
2023/05/16 02:38:47;;;;;;;18.42;11.10;;;;;;;;;;4956798;28;20046;-82
2023/05/16 02:41:14;;;;;;;19.77;11.02;;;;;;;;;;4974660;28;20043;-84
2023/05/16 02:43:42;;;;;;;16.80;10.68;;;;;;;;;;4989751;28;20508;-83
2023/05/16 02:46:24;;;;;;;20.27;11.13;;;;;;;;;;4975931;28;20575;-82
2023/05/16 02:48:51;;;;;;;20.25;11.85;;;;;;;;;;4983026;28;20047;-83
2023/05/16 02:51:20;;;;;;;19.33;11.82;;;;;;;;;;4974800;28;20043;-82
2023/05/16 02:53:46;;;;;;;19.42;12.18;;;;;;;;;;4970800;28;20476;-81
2023/05/16 02:56:13;;;;;;;20.08;12.13;;;;;;;;;;4954053;28;20130;-81
2023/05/16 02:58:40;;;;;;;18.95;12.10;;;;;;;;;;4954853;28;20047;-82
2023/05/16 03:01:07;;;;;;;17.83;12.73;;;;;;;;;;4973727;28;20062;-81
2023/05/16 03:03:35;;;;;;;19.40;12.93;;;;;;;;;;4981409;28;20546;-81
2023/05/16 03:06:02;;;;;;;22.67;12.93;;;;;;;;;;4958839;28;20050;-81
2023/05/16 03:08:31;;;;;;;20.15;12.88;;;;;;;;;;4959734;28;20129;-82
2023/05/16 03:10:58;;;;;;;20.00;12.85;;;;;;;;;;4975768;28;20054;-82
2023/05/16 03:13:24;;;;;;;20.27;12.88;;;;;;;;;;4975920;28;20079;-83
2023/05/16 03:15:51;;;;;;;22.85;13.40;;;;;;;;;;4988999;28;20061;-82
2023/05/16 03:18:18;;;;;;;20.63;13.15;;;;;;;;;;4973835;28;20051;-83
2023/05/16 03:20:44;;;;;;;22.30;13.57;;;;;;;;;;4975764;28;20149;-82
2023/05/16 03:23:11;;;;;;;19.13;13.45;;;;;;;;;;4991661;28;20053;-83
2023/05/16 03:25:38;;;;;;;21.70;13.07;;;;;;;;;;4976307;28;20058;-83
2023/05/16 03:28:09;;;;;;;22.65;13.73;;;;;;;;;;4976936;28;20046;-82
2023/05/16 03:30:35;;;;;;;22.25;13.43;;;;;;;;;;4975634;28;20054;-82
2023/05/16 03:33:03;;;;;;;18.90;13.00;;;;;;;;;;4955104;28;20142;-81
2023/05/16 03:35:33;;;;;;;25.42;12.98;;;;;;;;;;4945701;28;20675;-82
2023/05/16 03:37:59;;;;;;;20.55;13.48;;;;;;;;;;4979471;28;20039;-83
2023/05/16 03:40:26;;;;;;;23.77;13.65;;;;;;;;;;4966316;28;20045;-81
2023/05/16 03:42:53;;;;;;;19.23;12.43;;;;;;;;;;4967284;28;20602;-83
2023/05/16 03:45:19;;;;;;;18.65;13.05;;;;;;;;;;4952483;28;20433;-81
2023/05/16 03:47:47;;;;;;;20.40;12.18;;;;;;;;;;4968421;28;20039;-81
2023/05/16 03:50:15;;;;;;;21.17;13.15;;;;;;;;;;4965676;28;20028;-81
2023/05/16 03:52:41;;;;;;;20.02;12.70;;;;;;;;;;4970161;28;20043;-82
2023/05/16 03:55:08;;;;;;;24.15;13.20;;;;;;;;;;5001098;28;20119;-82
2023/05/16 03:57:37;;;;;;;20.33;12.32;;;;;;;;;;4970303;28;20043;-83
2023/05/16 04:00:06;;;;;;;19.52;12.35;;;;;;;;;;4958274;28;20043;-82
2023/05/16 04:02:37;;;;;;;25.20;12.77;;;;;;;;;;4979621;28;20282;-83
2023/05/16 04:05:04;;;;;;;19.63;13.52;;;;;;;;;;4974538;28;20058;-81
2023/05/16 04:07:30;;;;;;;20.75;13.18;;;;;;;;;;4989304;28;20652;-81
2023/05/16 04:09:57;;;;;;;22.75;14.00;;;;;;;;;;4941567;28;20047;-82
2023/05/16 04:12:24;;;;;;;25.05;13.75;;;;;;;;;;4956842;28;20500;-82
2023/05/16 04:14:50;;;;;;;22.67;14.48;;;;;;;;;;4970847;28;20074;-82
2023/05/16 04:17:17;;;;;;;21.13;13.82;;;;;;;;;;4957540;28;20127;-81
2023/05/16 04:19:44;;;;;;;27.80;14.60;;;;;;;;;;4936155;29;20055;-81
2023/05/16 04:22:10;;;;;;;22.85;15.00;;;;;;;;;;4953238;28;20055;-82
2023/05/16 04:24:37;;;;;;;27.45;16.23;;;;;;;;;;4955440;28;20051;-82
2023/05/16 04:27:04;;;;;;;28.50;16.40;;;;;;;;;;4953508;28;20047;-83
2023/05/16 04:29:31;;;;;;;34.13;16.83;;;;;;;;;;4948360;28;20098;-84
2023/05/16 04:31:57;;;;;;;33.75;17.85;;;;;;;;;;4978633;28;20047;-83
2023/05/16 04:34:26;;;;;;;27.20;17.30;;;;;;;;;;4951967;28;20043;-81
2023/05/16 04:36:54;;;;;;;35.55;17.20;;;;;;;;;;4973432;28;20074;-82
2023/05/16 04:39:21;;;;;;;29.05;17.63;;;;;;;;;;4959689;28;20094;-82
2023/05/16 04:41:47;;;;;;;29.58;17.50;;;;;;;;;;4969244;28;20063;-82
2023/05/16 04:44:14;;;;;;;28.98;18.27;;;;;;;;;;4936500;28;20043;-84
2023/05/16 04:46:40;;;;;;;28.10;18.00;;;;;;;;;;4957869;28;20043;-81
2023/05/16 04:49:07;;;;;;;32.58;19.50;;;;;;;;;;4980226;28;20046;-82
2023/05/16 04:51:36;;;;;;;29.95;18.50;;;;;;;;;;4962334;28;20067;-83
2023/05/16 04:54:03;;;;;;;35.00;18.90;;;;;;;;;;4972220;28;20473;-81
2023/05/16 04:56:29;;;;;;;33.83;20.25;;;;;;;;;;4965960;28;20048;-82
2023/05/16 04:58:56;;;;;;;41.72;22.90;;;;;;;;;;4953671;28;20538;-83
2023/05/16 05:01:22;;;;;;;41.33;23.17;;;;;;;;;;4954527;28;20051;-82
2023/05/16 05:03:49;;;;;;;38.67;24.40;;;;;;;;;;4957410;28;20043;-84
2023/05/16 05:06:16;;;;;;;41.10;24.73;;;;;;;;;;4953844;28;20047;-82
2023/05/16 05:08:42;;;;;;;43.65;25.20;;;;;;;;;;4951327;28;20476;-85
2023/05/16 05:11:09;;;;;;;42.50;25.48;;;;;;;;;;4951843;28;20125;-82
2023/05/16 05:13:35;;;;;;;45.38;25.25;;;;;;;;;;4949754;28;20515;-83
2023/05/16 05:16:03;;;;;;;42.13;25.98;;;;;;;;;;4951605;28;20562;-82
2023/05/16 05:18:30;;;;;;;44.17;25.00;;;;;;;;;;4953198;28;20043;-81
2023/05/16 05:20:57;;;;;;;42.50;25.90;;;;;;;;;;4952084;28;20058;-85
2023/05/16 05:23:23;;;;;;;48.55;26.52;;;;;;;;;;4967395;28;20050;-85
2023/05/16 05:25:50;;;;;;;41.83;25.50;;;;;;;;;;4935115;28;20098;-85
2023/05/16 05:28:16;;;;;;;46.30;26.52;;;;;;;;;;4967933;28;20063;-84
2023/05/16 05:30:43;;;;;;;48.38;25.95;;;;;;;;;;4953193;28;20055;-83
2023/05/16 05:33:10;;;;;;;47.97;26.90;;;;;;;;;;4959630;28;20045;-82
2023/05/16 05:35:37;;;;;;;44.45;26.50;;;;;;;;;;4973301;28;20063;-81
2023/05/16 05:38:03;;;;;;;49.15;26.92;;;;;;;;;;4965151;28;20047;-84
2023/05/16 05:40:30;;;;;;;47.17;27.38;;;;;;;;;;4961592;28;20061;-84
2023/05/16 05:42:56;;;;;;;45.92;27.80;;;;;;;;;;4967809;28;20139;-88
2023/05/16 05:45:23;;;;;;;49.33;28.58;;;;;;;;;;4953013;28;20066;-87
2023/05/16 05:47:53;;;;;;;49.60;28.25;;;;;;;;;;4960324;29;20054;-84
2023/05/16 05:50:19;;;;;;;52.88;29.27;;;;;;;;;;4950848;28;20413;-84
2023/05/16 05:52:46;;;;;;;49.67;29.25;;;;;;;;;;4944681;28;20526;-83
2023/05/16 05:55:12;;;;;;;44.90;27.98;;;;;;;;;;4960986;28;20047;-86
2023/05/16 05:57:39;;;;;;;50.35;29.42;;;;;;;;;;4967687;28;20055;-83
2023/05/16 06:00:06;;;;;;;47.55;28.83;;;;;;;;;;4952011;28;20055;-83
2023/05/16 06:02:33;;;;;;;45.60;28.63;;;;;;;;;;4941223;28;20047;-81
2023/05/16 06:05:00;;;;;;;47.50;28.30;;;;;;;;;;4970350;28;20058;-83
2023/05/16 06:07:27;;;;;;;47.42;28.25;;;;;;;;;;4972374;28;20039;-83
2023/05/16 06:09:53;;;;;;;50.55;28.77;;;;;;;;;;4972875;28;20046;-84
2023/05/16 06:12:20;;;;;;;48.35;29.10;;;;;;;;;;4956811;28;20077;-84
2023/05/16 06:14:46;;;;;;;53.75;30.67;;;;;;;;;;4963364;28;20031;-83
2023/05/16 06:17:13;;;;;;;53.40;29.15;;;;;;;;;;4991547;28;20051;-83
2023/05/16 06:19:39;;;;;;;48.53;27.80;;;;;;;;;;4991281;28;20062;-83
2023/05/16 06:22:06;;;;;;;47.88;28.67;;;;;;;;;;4985985;28;20103;-82
2023/05/16 06:24:32;;;;;;;51.97;29.00;;;;;;;;;;4963063;28;20294;-85
2023/05/16 06:26:59;;;;;;;49.05;29.42;;;;;;;;;;4959064;28;20066;-85
2023/05/16 06:29:26;;;;;;;49.65;29.17;;;;;;;;;;4969328;28;20067;-82
2023/05/16 06:31:52;;;;;;;47.25;28.02;;;;;;;;;;4967846;28;20066;-85
2023/05/16 06:34:26;;;;;;;48.90;27.38;;;;;;;;;;4958434;28;20051;-85
2023/05/16 06:36:55;;;;;;;45.15;27.45;;;;;;;;;;4944631;28;20054;-87
2023/05/16 06:39:26;;;;;;;45.28;25.77;;;;;;;;;;4961417;28;20053;-85
2023/05/16 06:41:53;;;;;;;45.10;26.33;;;;;;;;;;4970116;28;20055;-85
2023/05/16 06:44:22;;;;;;;43.47;26.30;;;;;;;;;;4970433;28;20420;-84
2023/05/16 06:46:49;;;;;;;45.20;25.80;;;;;;;;;;4951867;28;20055;-84
2023/05/16 06:49:16;;;;;;;43.97;26.40;;;;;;;;;;4970114;28;20051;-83
2023/05/16 06:51:42;;;;;;;43.13;26.02;;;;;;;;;;4948089;28;20048;-85
2023/05/16 06:54:09;;;;;;;44.55;25.75;;;;;;;;;;4956063;28;20078;-83
2023/05/16 06:56:36;;;;;;;44.03;26.38;;;;;;;;;;4956287;28;20054;-82
2023/05/16 06:59:03;;;;;;;51.42;27.60;;;;;;;;;;4973235;28;20039;-82
2023/05/16 07:01:29;;;;;;;42.08;26.38;;;;;;;;;;4955864;28;20046;-83
2023/05/16 07:03:56;;;;;;;43.65;25.95;;;;;;;;;;4946442;28;20136;-85
2023/05/16 07:06:23;;;;;;;39.75;24.73;;;;;;;;;;4955584;28;20043;-83
2023/05/16 07:08:50;;;;;;;46.92;25.00;;;;;;;;;;4973735;28;20106;-87
2023/05/16 07:11:16;;;;;;;34.67;21.80;;;;;;;;;;4975652;28;20046;-84
2023/05/16 07:13:43;;;;;;;42.08;21.67;;;;;;;;;;4976226;28;20054;-83
2023/05/16 07:16:09;;;;;;;37.35;21.88;;;;;;;;;;4975754;28;20047;-81
2023/05/16 07:18:36;;;;;;;35.85;19.42;;;;;;;;;;4971611;28;20074;-84
2023/05/16 07:21:03;;;;;;;38.22;19.40;;;;;;;;;;4991553;28;20111;-85
2023/05/16 07:23:30;;;;;;;34.17;20.00;;;;;;;;;;4974971;28;20101;-83
2023/05/16 07:25:57;;;;;;;34.83;19.85;;;;;;;;;;4984749;28;20047;-84
2023/05/16 07:28:24;;;;;;;31.50;19.17;;;;;;;;;;4978561;28;20047;-83
2023/05/16 07:30:51;;;;;;;32.13;19.55;;;;;;;;;;4974212;28;20169;-84
2023/05/16 07:33:17;;;;;;;32.17;19.08;;;;;;;;;;4991840;28;20034;-84
2023/05/16 07:35:48;;;;;;;28.25;18.38;;;;;;;;;;4974392;28;20093;-82
2023/05/16 07:38:15;;;;;;;34.30;19.40;;;;;;;;;;4989183;28;20573;-82
2023/05/16 07:40:42;;;;;;;29.15;18.17;;;;;;;;;;4972181;28;20043;-81
2023/05/16 07:43:08;;;;;;;31.42;18.40;;;;;;;;;;4973044;28;20045;-84
2023/05/16 07:45:35;;;;;;;32.28;18.98;;;;;;;;;;4984558;28;20063;-83
2023/05/16 07:48:02;;;;;;;31.58;18.10;;;;;;;;;;4973891;28;20141;-84
2023/05/16 07:50:28;;;;;;;26.98;17.15;;;;;;;;;;4972567;28;20039;-83
2023/05/16 07:52:55;;;;;;;27.10;16.40;;;;;;;;;;4987910;28;20043;-84
2023/05/16 07:55:25;;;;;;;27.02;16.63;;;;;;;;;;4972120;28;20443;-83
2023/05/16 07:57:52;;;;;;;25.88;17.45;;;;;;;;;;4971075;28;20046;-84
2023/05/16 08:00:20;;;;;;;32.55;17.45;;;;;;;;;;4954571;28;20039;-82
2023/05/16 08:02:46;;;;;;;31.58;17.80;;;;;;;;;;4973562;28;20048;-83
2023/05/16 08:05:13;;;;;;;33.10;18.10;;;;;;;;;;4976010;28;20042;-82
2023/05/16 08:07:40;;;;;;;33.92;17.45;;;;;;;;;;4981787;28;20050;-83
2023/05/16 08:10:07;;;;;;;29.60;18.00;;;;;;;;;;4979474;28;20071;-84
2023/05/16 08:12:33;;;;;;;29.08;18.70;;;;;;;;;;4990798;28;20137;-85
2023/05/16 08:15:00;;;;;;;28.92;18.58;;;;;;;;;;4957031;28;20050;-84
2023/05/16 08:17:27;;;;;;;32.60;18.08;;;;;;;;;;4998843;28;20041;-85
2023/05/16 08:19:54;;;;;;;24.63;15.63;;;;;;;;;;5009095;28;20046;-83
2023/05/16 08:22:21;;;;;;;27.50;16.85;;;;;;;;;;4980015;28;20058;-85
2023/05/16 08:24:48;;;;;;;29.73;16.58;;;;;;;;;;4972823;28;20054;-83
2023/05/16 08:27:15;;;;;;;35.15;17.25;;;;;;;;;;4973756;28;20482;-83
2023/05/16 08:29:41;;;;;;;32.80;18.60;;;;;;;;;;4946327;28;20102;-85
2023/05/16 08:32:09;;;;;;;29.80;17.55;;;;;;;;;;4935996;28;20049;-85
2023/05/16 08:34:36;;;;;;;29.42;17.83;;;;;;;;;;4956117;28;20061;-85
2023/05/16 08:37:03;;;;;;;30.17;16.85;;;;;;;;;;4953984;28;20051;-85
2023/05/16 08:39:29;;;;;;;28.63;15.50;;;;;;;;;;4954631;28;20043;-85
2023/05/16 08:41:57;;;;;;;29.83;16.15;;;;;;;;;;4951387;28;20047;-85
2023/05/16 08:44:24;;;;;;;31.05;16.25;;;;;;;;;;4936672;28;20047;-85
2023/05/16 08:46:51;;;;;;;29.25;16.38;;;;;;;;;;4952621;28;20062;-85
2023/05/16 08:49:20;;;;;;;25.80;15.60;;;;;;;;;;4952754;28;20039;-83
2023/05/16 08:51:47;;;;;;;24.00;14.98;;;;;;;;;;4952968;28;20044;-83
2023/05/16 08:54:15;;;;;;;27.17;16.50;;;;;;;;;;4969222;28;20051;-84
2023/05/16 08:56:42;;;;;;;33.13;16.40;;;;;;;;;;4940449;28;20051;-84
2023/05/16 08:59:10;;;;;;;30.52;17.30;;;;;;;;;;4962701;28;20062;-83
2023/05/16 09:01:37;;;;;;;31.92;16.75;;;;;;;;;;4960922;28;20150;-85
2023/05/16 09:04:06;;;;;;;28.77;18.05;;;;;;;;;;4961696;28;20101;-83
2023/05/16 09:06:33;;;;;;;31.23;18.65;;;;;;;;;;4984393;28;20046;-83
2023/05/16 09:09:01;;;;;;;33.53;18.88;;;;;;;;;;4968948;28;20848;-82
2023/05/16 09:11:28;;;;;;;33.42;19.85;;;;;;;;;;4985507;28;20134;-82
2023/05/16 09:13:55;;;;;;;38.08;20.98;;;;;;;;;;4970070;28;20042;-81
2023/05/16 09:16:22;;;;;;;31.45;20.35;;;;;;;;;;4986731;28;20125;-85
2023/05/16 09:18:56;;;;;;;30.35;19.25;;;;;;;;;;4955027;28;20038;-84
2023/05/16 09:21:26;;;;;;;26.77;17.57;;;;;;;;;;4971086;28;20038;-84
2023/05/16 09:23:54;;;;;;;30.45;17.45;;;;;;;;;;4971294;28;20042;-82
2023/05/16 09:26:21;;;;;;;26.67;16.65;;;;;;;;;;4954795;28;20042;-86
2023/05/16 09:28:52;;;;;;;24.00;14.77;;;;;;;;;;4985799;28;20379;-83
2023/05/16 09:31:26;;;;;;;28.50;14.63;;;;;;;;;;4953294;28;20058;-84
2023/05/16 09:33:55;;;;;;;21.67;13.20;;;;;;;;;;4954415;28;20673;-85
2023/05/16 09:36:22;;;;;;;18.35;11.55;;;;;;;;;;4951843;28;20058;-84
2023/05/16 09:38:50;;;;;;;16.63;10.65;;;;;;;;;;4958010;28;20059;-82
2023/05/16 09:41:17;;;;;;;20.73;10.82;;;;;;;;;;4972418;28;20035;-83
2023/05/16 09:43:43;;;;;;;16.80;9.88;;;;;;;;;;4954981;28;20063;-84
2023/05/16 09:46:14;;;;;;;17.50;10.88;;;;;;;;;;4956230;28;20051;-83
2023/05/16 09:48:48;;;;;;;15.60;9.70;;;;;;;;;;4957748;28;20059;-85
2023/05/16 09:51:14;;;;;;;17.50;10.27;;;;;;;;;;4949413;28;20070;-82
2023/05/16 09:53:42;;;;;;;16.13;8.43;;;;;;;;;;4942553;28;20047;-82
2023/05/16 09:56:12;;;;;;;14.48;9.15;;;;;;;;;;4956825;28;20138;-82
2023/05/16 09:58:40;;;;;;;16.65;9.52;;;;;;;;;;4940288;28;20055;-84
2023/05/16 10:01:07;;;;;;;16.65;9.40;;;;;;;;;;4960211;28;20463;-84
2023/05/16 10:03:35;;;;;;;15.00;9.77;;;;;;;;;;4969197;28;20070;-84
2023/05/16 10:06:02;;;;;;;16.42;9.00;;;;;;;;;;4992005;28;20125;-83
2023/05/16 10:08:30;;;;;;;14.35;8.90;;;;;;;;;;4977537;28;20418;-84
2023/05/16 10:10:57;;;;;;;12.70;8.40;;;;;;;;;;4977107;28;20075;-82
2023/05/16 10:13:28;;;;;;;16.30;10.10;;;;;;;;;;4960348;28;20070;-83
2023/05/16 10:15:56;;;;;;;12.98;8.55;;;;;;;;;;4991357;28;20039;-84
2023/05/16 10:18:27;;;;;;;13.82;8.20;;;;;;;;;;4992001;28;20073;-81
2023/05/16 10:20:55;;;;;;;11.20;7.50;;;;;;;;;;4975996;28;20055;-84
2023/05/16 10:23:23;;;;;;;17.70;7.13;;;;;;;;;;4975821;28;20069;-82
2023/05/16 10:25:50;;;;;;;11.45;6.25;;;;;;;;;;4975158;28;20069;-84
2023/05/16 10:28:17;;;;;;;9.77;5.80;;;;;;;;;;4959374;28;20050;-84
2023/05/16 10:30:45;;;;;;;10.13;5.75;;;;;;;;;;4967015;28;20051;-84
2023/05/16 10:33:12;;;;;;;9.15;5.85;;;;;;;;;;4964228;28;20524;-84
2023/05/16 10:35:39;;;;;;;11.30;5.93;;;;;;;;;;4956132;28;20500;-83
2023/05/16 10:38:08;;;;;;;9.05;5.97;;;;;;;;;;4954162;28;20054;-83
2023/05/16 10:40:36;;;;;;;10.82;7.07;;;;;;;;;;4954431;28;20047;-82
2023/05/16 10:43:04;;;;;;;11.38;6.32;;;;;;;;;;4979720;28;20504;-83
2023/05/16 10:45:30;;;;;;;18.48;7.10;;;;;;;;;;4955867;28;20078;-83
2023/05/16 10:47:58;;;;;;;13.88;6.38;;;;;;;;;;4955780;28;20051;-83
2023/05/16 10:50:33;;;;;;;8.02;5.80;;;;;;;;;;4954936;28;20522;-83
2023/05/16 10:53:00;;;;;;;;;;;;;;;;;;4954070;28;20051;-83
2023/05/16 10:55:29;;;;;;;9.80;5.75;;;;;;;;;;4968933;28;19923;-85
2023/05/16 10:57:56;;;;;;;8.23;5.00;;;;;;;;;;4955672;28;20519;-83
2023/05/16 11:00:23;;;;;;;7.88;4.30;;;;;;;;;;4973695;28;20035;-81
2023/05/16 11:02:51;;;;;;;9.48;4.70;;;;;;;;;;4968084;28;20031;-80
2023/05/16 11:05:18;;;;;;;8.93;4.85;;;;;;;;;;4987339;28;20095;-83
2023/05/16 11:08:00;;;;;;;6.97;4.32;;;;;;;;;;4990315;28;20554;-84
2023/05/16 11:10:27;;;;;;;7.80;4.32;;;;;;;;;;4976861;28;20042;-84
2023/05/16 11:13:01;;;;;;;6.43;4.45;;;;;;;;;;4990426;28;20130;-83
2023/05/16 11:15:30;;;;;;;6.40;4.18;;;;;;;;;;4974681;28;20050;-85
2023/05/16 11:18:14;;;;;;;5.25;3.35;;;;;;;;;;4961398;28;20058;-84
2023/05/16 11:20:41;;;;;;;7.05;2.80;;;;;;;;;;4975940;28;20617;-82
2023/05/16 11:23:21;;;;;;;5.50;2.65;;;;;;;;;;4938788;28;20159;-80
2023/05/16 11:26:04;;;;;;;4.20;2.78;;;;;;;;;;4954778;28;21067;-81
2023/05/16 11:32:07;;;;;;;4.15;2.65;;;;;;;;;;4929488;28;20468;-80
2023/05/16 11:35:04;;;;;;;4.70;2.75;;;;;;;;;;4933165;28;20066;-80
2023/05/16 11:37:44;;;;;;;5.20;2.78;;;;;;;;;;4965769;28;20051;-81
2023/05/16 11:40:43;;;;;;;6.20;2.90;;;;;;;;;;4953664;28;20090;-81
2023/05/16 11:43:25;;;;;;;4.50;2.97;;;;;;;;;;4938142;28;20780;-81
2023/05/16 11:45:59;;;;;;;5.15;3.47;;;;;;;;;;4943084;28;20170;-79
2023/05/16 11:48:46;;;;;;;11.15;6.13;;;;;;;;;;4954632;28;20105;-80
2023/05/16 11:51:35;;;;;;;6.82;3.35;;;;;;;;;;4963070;28;20054;-81
2023/05/16 11:54:15;;;;;;;11.98;4.80;;;;;;;;;;4962217;28;20126;-79
2023/05/16 11:56:45;;;;;;;7.72;3.90;;;;;;;;;;4902592;28;20103;-80
2023/05/16 11:59:20;;;;;;;6.65;3.50;;;;;;;;;;4941909;28;20118;-80
2023/05/16 12:01:55;;;;;;;4.93;3.33;;;;;;;;;;4931382;28;20043;-80
2023/05/16 12:04:26;;;;;;;10.80;3.40;;;;;;;;;;4934337;28;20062;-80
2023/05/16 12:06:59;;;;;;;6.07;3.60;;;;;;;;;;4938126;28;20067;-79
2023/05/16 12:09:56;;;;;;;6.95;3.25;;;;;;;;;;4955498;28;20080;-78
2023/05/16 12:12:27;;;;;;;8.77;3.30;;;;;;;;;;4938875;28;20051;-81
2023/05/16 12:15:17;;;;;;;5.22;2.80;;;;;;;;;;4938141;28;20047;-80
2023/05/16 12:18:06;;;;;;;6.35;2.20;;;;;;;;;;4948038;28;20138;-81
2023/05/16 12:20:44;;;;;;;7.40;2.58;;;;;;;;;;4954223;28;20043;-81
2023/05/16 12:23:15;;;;;;;5.78;2.55;;;;;;;;;;4945575;28;20054;-81
2023/05/16 12:25:57;;;;;;;4.40;2.15;;;;;;;;;;4946101;28;20078;-80
2023/05/16 12:28:38;;;;;;;7.78;2.00;;;;;;;;;;4947420;28;20051;-79
2023/05/16 12:31:12;;;;;;;8.32;2.60;;;;;;;;;;4936512;28;20095;-80
2023/05/16 12:34:20;;;;;;;5.32;2.17;;;;;;;;;;4935960;28;20051;-79
2023/05/16 12:37:00;;;;;;;4.03;2.00;;;;;;;;;;4928171;28;20150;-80
2023/05/16 12:39:39;;;;;;;5.70;2.20;;;;;;;;;;4919803;28;20071;-80
2023/05/16 12:42:26;;;;;;;13.80;2.67;;;;;;;;;;4919487;28;20511;-79
2023/05/16 12:45:15;;;;;;;16.33;3.03;;;;;;;;;;4929890;28;20052;-80
2023/05/16 12:47:42;;;;;;;12.50;2.45;;;;;;;;;;4928044;29;20571;-80
2023/05/16 12:50:11;;;;;;;6.57;2.58;;;;;;;;;;4932047;28;20411;-80
2023/05/16 12:52:51;;;;;;;5.85;2.50;;;;;;;;;;4938596;28;20357;-80
2023/05/16 12:55:22;;;;;;;8.43;2.40;;;;;;;;;;4925100;28;20047;-80
2023/05/16 12:57:50;;;;;;;9.25;3.05;;;;;;;;;;4924031;28;20499;-80
2023/05/16 13:00:22;;;;;;;14.30;3.00;;;;;;;;;;4949374;23;20047;-80
2023/05/16 13:02:54;;;;;;;8.30;3.10;;;;;;;;;;4951425;28;20047;-80
2023/05/16 13:05:28;;;;;;;10.23;3.75;;;;;;;;;;4924311;28;20047;-81
2023/05/16 13:08:12;;;;;;;5.17;2.70;;;;;;;;;;4928950;28;20122;-81
2023/05/16 13:10:58;;;;;;;10.80;3.30;;;;;;;;;;4927833;28;20055;-79
2023/05/16 13:13:29;;;;;;;9.90;4.60;;;;;;;;;;4902048;29;20122;-79
2023/05/16 13:16:09;;;;;;;15.45;4.55;;;;;;;;;;4900377;29;20145;-80
2023/05/16 13:18:48;;;;;;;11.68;4.82;;;;;;;;;;4917559;29;20556;-80
2023/05/16 13:22:02;;;;;;;16.55;4.85;;;;;;;;;;4928446;29;20043;-80
2023/05/16 13:24:45;;;;;;;10.57;4.95;;;;;;;;;;4928035;28;20138;-80
2023/05/16 13:27:50;;;;;;;13.50;4.90;;;;;;;;;;4920277;28;20050;-81
2023/05/16 13:33:15;;;;;;;9.70;4.40;;;;;;;;;;4096496;26;20534;-80
2023/05/16 13:35:55;;;;;;;11.20;4.93;;;;;;;;;;4982570;28;20047;-79
2023/05/16 13:38:43;;;;;;;10.10;4.85;;;;;;;;;;4984933;28;20058;-79
2023/05/16 13:41:20;;;;;;;12.02;4.60;;;;;;;;;;4931936;28;20049;-81
2023/05/16 13:43:48;;;;;;;11.20;3.63;;;;;;;;;;4961523;28;20122;-80
2023/05/16 13:46:16;;;;;;;10.52;3.63;;;;;;;;;;4973743;28;20051;-83
2023/05/16 13:48:42;;;;;;;8.77;3.50;;;;;;;;;;4989002;28;20038;-83
2023/05/16 13:51:10;;;;;;;10.98;3.78;;;;;;;;;;4974815;28;20054;-81
2023/05/16 13:53:38;;;;;;;11.20;3.78;;;;;;;;;;4978264;28;20065;-79
2023/05/16 13:56:04;;;;;;;12.45;3.35;;;;;;;;;;4980845;28;20111;-80
2023/05/16 13:58:31;;;;;;;12.20;3.55;;;;;;;;;;4971854;28;20078;-80
2023/05/16 14:00:58;;;;;;;13.48;3.53;;;;;;;;;;4968126;28;20130;-80
2023/05/16 14:03:24;;;;;;;11.88;3.75;;;;;;;;;;4976117;28;20062;-81
2023/05/16 14:05:51;;;;;;;9.20;3.30;;;;;;;;;;4968964;28;20073;-81
2023/05/16 14:08:20;;;;;;;13.93;3.45;;;;;;;;;;4971549;28;20101;-80
2023/05/16 14:10:48;;;;;;;11.80;3.95;;;;;;;;;;4973470;28;20130;-80
2023/05/16 14:13:15;;;;;;;15.55;4.22;;;;;;;;;;4974026;28;20420;-79
2023/05/16 14:15:41;;;;;;;8.23;3.42;;;;;;;;;;4985647;28;20057;-81
2023/05/16 14:18:08;;;;;;;11.30;2.80;;;;;;;;;;4974582;28;20046;-81
2023/05/16 14:20:35;;;;;;;9.77;2.60;;;;;;;;;;4988386;28;20046;-80
2023/05/16 14:23:03;;;;;;;10.55;2.72;;;;;;;;;;4979775;28;20097;-82
2023/05/16 14:25:32;;;;;;;10.77;2.58;;;;;;;;;;4987684;28;20086;-80
2023/05/16 14:27:59;;;;;;;12.10;2.65;;;;;;;;;;4971207;28;20105;-79
2023/05/16 14:30:26;;;;;;;10.18;2.50;;;;;;;;;;4960371;28;20065;-81
2023/05/16 14:32:53;;;;;;;7.57;2.47;;;;;;;;;;4957741;28;20063;-81
2023/05/16 14:35:19;;;;;;;10.50;2.58;;;;;;;;;;4975130;28;20035;-82
2023/05/16 14:37:46;;;;;;;14.30;2.22;;;;;;;;;;4960408;28;20039;-82
2023/05/16 14:40:13;;;;;;;15.93;2.63;;;;;;;;;;4993164;28;20053;-83
2023/05/16 14:42:40;;;;;;;15.40;2.55;;;;;;;;;;4980265;28;20074;-80
2023/05/16 14:45:07;;;;;;;10.55;1.98;;;;;;;;;;4976407;28;20151;-79